Time;durP1;ratioP1;P1;durP2;ratioP2;P2;SDS_P1;SDS_P2;PMS_P1;PMS_P2;Temp;Humidity;BMP_temperature;BMP_pressure;BME280_temperature;BME280_humidity;BME280_pressure;Samples;Min_cycle;Max_cycle;Signal;HPM_P1;HPM_P2
2021/06/16 00:00:10;;;;;;;6.72;3.53;;;;;;;15.68;97.15;99845.38;5090215;28;20030;-70
2021/06/16 00:02:36;;;;;;;5.30;3.63;;;;;;;15.66;97.55;99841.03;5092771;28;20032;-72
2021/06/16 00:05:07;;;;;;;5.97;3.97;;;;;;;15.71;97.92;99846.25;5091362;28;20034;-69
2021/06/16 00:07:33;;;;;;;5.30;3.20;;;;;;;15.71;97.51;99843.66;5082274;28;20032;-68
2021/06/16 00:09:58;;;;;;;7.07;3.80;;;;;;;15.44;97.36;99803.59;5094336;28;20031;-68
2021/06/16 00:12:25;;;;;;;6.07;3.47;;;;;;;15.64;97.83;99833.22;5089601;28;20024;-69
2021/06/16 00:14:52;;;;;;;8.30;4.28;;;;;;;15.58;98.19;99833.16;5094218;28;20034;-68
2021/06/16 00:17:17;;;;;;;6.15;3.70;;;;;;;15.67;98.25;99845.38;5094218;28;20074;-68
2021/06/16 00:19:42;;;;;;;4.97;3.55;;;;;;;15.75;97.75;99846.28;5094408;28;20486;-68
2021/06/16 00:22:08;;;;;;;6.40;3.40;;;;;;;15.77;97.26;99838.50;5093133;28;20059;-68
2021/06/16 00:24:34;;;;;;;6.43;3.88;;;;;;;15.77;97.47;99820.28;5088349;28;20089;-68
2021/06/16 00:26:59;;;;;;;6.07;3.88;;;;;;;15.55;97.20;99775.03;5091137;28;20036;-69
2021/06/16 00:29:25;;;;;;;4.88;3.30;;;;;;;15.84;96.83;99820.34;5089680;28;20022;-69
2021/06/16 00:31:51;;;;;;;5.43;3.47;;;;;;;15.36;96.76;99743.72;5091972;28;20028;-68
2021/06/16 00:34:16;;;;;;;7.28;3.67;;;;;;;15.90;95.90;99816.03;5091471;28;20027;-68
2021/06/16 00:36:42;;;;;;;5.90;3.17;;;;;;;15.82;96.38;99795.16;5092403;28;20030;-68
2021/06/16 00:39:09;;;;;;;4.57;3.30;;;;;;;15.96;96.21;99816.94;5092762;28;20478;-68
2021/06/16 00:41:35;;;;;;;8.15;3.17;;;;;;;15.96;95.82;99808.25;5087722;28;20059;-68
2021/06/16 00:44:01;;;;;;;8.63;3.97;;;;;;;15.92;96.58;99804.75;5087455;28;20103;-67
2021/06/16 00:46:27;;;;;;;10.85;3.80;;;;;;;15.95;96.50;99809.09;5089571;28;20025;-70
2021/06/16 00:48:53;;;;;;;5.65;3.55;;;;;;;15.90;96.25;99803.00;5089308;28;20530;-72
2021/06/16 00:51:19;;;;;;;5.40;2.97;;;;;;;15.97;95.67;99805.63;5087801;28;20024;-69
2021/06/16 00:53:44;;;;;;;5.80;3.05;;;;;;;16.08;95.70;99820.44;5086861;28;20080;-69
2021/06/16 00:56:10;;;;;;;7.50;4.15;;;;;;;16.06;95.40;99814.34;5090043;28;20043;-69
2021/06/16 00:58:36;;;;;;;7.93;3.63;;;;;;;16.16;95.81;99813.53;5088236;28;20157;-70
2021/06/16 01:01:27;;;;;;;5.25;2.95;;;;;;;16.09;95.61;99803.97;5090620;28;20016;-71
2021/06/16 01:04:05;;;;;;;10.15;3.30;;;;;;;15.82;95.58;99749.19;5015391;28;20457;-71
2021/06/16 01:06:33;;;;;;;4.50;3.38;;;;;;;16.18;95.37;99799.63;5027991;28;20061;-71
2021/06/16 01:09:18;;;;;;;5.95;3.65;;;;;;;16.24;95.47;99811.81;5026828;28;20041;-71
2021/06/16 01:12:15;;;;;;;8.77;3.63;;;;;;;16.14;95.71;99792.69;5028068;28;20434;-70
2021/06/16 01:14:50;;;;;;;6.20;3.60;;;;;;;15.91;94.89;99757.91;5025297;28;20095;-68
2021/06/16 01:17:34;;;;;;;6.90;2.80;;;;;;;16.21;94.76;99803.97;5027521;28;20047;-68
2021/06/16 01:19:59;;;;;;;7.13;3.35;;;;;;;16.33;94.45;99816.19;5028850;28;20025;-70
2021/06/16 01:22:44;;;;;;;4.93;2.85;;;;;;;16.40;94.53;99804.94;5011858;28;20044;-71
2021/06/16 01:25:21;;;;;;;5.15;3.28;;;;;;;16.42;94.39;99802.31;5028522;28;20581;-69
2021/06/16 01:27:47;;;;;;;6.55;2.70;;;;;;;16.16;93.43;99756.22;5027686;28;20443;-68
2021/06/16 01:30:13;;;;;;;7.13;2.85;;;;;;;16.27;93.74;99798.78;4996306;28;20030;-68
2021/06/16 01:32:38;;;;;;;4.60;2.50;;;;;;;16.16;93.52;99790.97;5027502;28;20087;-68
2021/06/16 01:35:05;;;;;;;7.55;3.20;;;;;;;16.30;94.29;99804.03;5023508;28;20029;-69
2021/06/16 01:37:30;;;;;;;11.32;3.60;;;;;;;16.24;93.88;99798.81;5026954;28;20431;-68
2021/06/16 01:39:57;;;;;;;7.07;3.25;;;;;;;16.07;94.79;99785.72;5036866;28;20028;-68
2021/06/16 01:42:26;;;;;;;4.20;2.67;;;;;;;16.07;95.13;99785.72;5090010;28;20031;-69
2021/06/16 01:44:53;;;;;;;5.60;2.92;;;;;;;16.10;94.99;99785.75;5086227;28;20401;-69
2021/06/16 01:47:22;;;;;;;4.55;2.65;;;;;;;16.19;94.55;99792.72;5091206;28;20046;-71
2021/06/16 01:49:51;;;;;;;;;;;;;;;16.25;94.39;99787.53;5081052;28;20498;-72
2021/06/16 01:52:19;;;;;;;11.23;3.72;;;;;;;16.28;94.83;99786.66;5077023;28;19908;-68
2021/06/16 01:54:45;;;;;;;7.78;4.32;;;;;;;16.28;94.73;99799.69;5081540;28;20101;-69
2021/06/16 01:57:12;;;;;;;6.50;3.90;;;;;;;16.31;94.98;99794.47;5077493;28;20020;-68
2021/06/16 01:59:40;;;;;;;6.63;3.75;;;;;;;16.29;94.10;99801.44;5082797;28;20039;-69
2021/06/16 02:02:06;;;;;;;10.52;3.55;;;;;;;16.07;95.61;99795.28;5089455;28;20500;-71
2021/06/16 02:04:33;;;;;;;6.97;3.97;;;;;;;16.10;96.71;99793.56;5090871;28;20020;-71
2021/06/16 02:07:05;;;;;;;9.02;3.47;;;;;;;16.18;96.26;99798.78;5089252;28;20485;-71
2021/06/16 02:09:33;;;;;;;7.85;3.05;;;;;;;16.12;96.30;99810.03;5090711;28;20032;-71
2021/06/16 02:11:59;;;;;;;5.68;2.78;;;;;;;15.85;97.65;99801.25;5088820;28;20483;-71
2021/06/16 02:14:25;;;;;;;5.85;2.70;;;;;;;15.89;97.72;99803.84;5092131;28;20039;-71
2021/06/16 02:16:56;;;;;;;5.03;2.88;;;;;;;15.65;98.23;99785.53;5092291;28;20032;-71
2021/06/16 02:19:27;;;;;;;7.18;3.05;;;;;;;15.31;99.51;99746.28;5091760;28;20368;-71
2021/06/16 02:21:54;;;;;;;7.18;3.40;;;;;;;15.67;100.00;99780.31;5092004;28;20020;-71
2021/06/16 02:24:20;;;;;;;10.45;3.10;;;;;;;15.78;99.25;99785.59;5091878;28;20113;-70
2021/06/16 02:26:46;;;;;;;8.10;3.60;;;;;;;15.68;98.95;99764.69;5091716;28;20104;-71
2021/06/16 02:29:11;;;;;;;8.55;3.00;;;;;;;15.80;99.58;99781.22;5091770;28;20482;-70
2021/06/16 02:31:39;;;;;;;8.55;2.80;;;;;;;15.79;99.10;99782.97;5091846;28;20060;-72
2021/06/16 02:34:05;;;;;;;9.25;2.90;;;;;;;15.90;99.04;99785.66;5091631;28;20030;-72
2021/06/16 02:36:36;;;;;;;7.70;3.13;;;;;;;15.99;98.46;99788.28;5091353;28;20106;-72
2021/06/16 02:39:06;;;;;;;8.52;2.67;;;;;;;16.05;97.57;99797.00;5091303;28;20032;-72
2021/06/16 02:41:32;;;;;;;6.43;3.10;;;;;;;15.60;99.48;99788.94;5076866;28;20025;-72
2021/06/16 02:43:59;;;;;;;10.45;3.28;;;;;;;15.45;100.00;99779.31;5076748;28;20375;-71
2021/06/16 02:46:26;;;;;;;12.60;3.03;;;;;;;15.62;100.00;99803.69;5078584;28;20486;-72
2021/06/16 02:48:52;;;;;;;5.68;3.03;;;;;;;15.64;99.67;99812.41;5075854;28;20047;-72
2021/06/16 02:51:18;;;;;;;7.60;2.67;;;;;;;15.42;100.00;99792.31;5079523;28;20020;-72
2021/06/16 02:53:46;;;;;;;7.43;3.20;;;;;;;15.60;100.00;99817.56;5075400;28;20040;-71
2021/06/16 02:56:13;;;;;;;5.85;2.90;;;;;;;15.65;100.00;99819.34;5079521;28;20023;-72
2021/06/16 02:58:42;;;;;;;7.82;3.30;;;;;;;15.72;100.00;99816.78;5076211;28;20047;-72
2021/06/16 03:01:10;;;;;;;;;;;;;;;15.82;99.71;99829.00;5078116;28;20029;-72
2021/06/16 03:03:37;;;;;;;6.85;2.90;;;;;;;15.95;99.19;99832.53;5086552;28;19913;-72
2021/06/16 03:06:03;;;;;;;8.55;3.05;;;;;;;16.02;99.03;99831.69;5075765;28;20466;-71
2021/06/16 03:08:29;;;;;;;7.80;3.28;;;;;;;15.82;98.87;99782.16;5078577;28;20024;-71
2021/06/16 03:10:58;;;;;;;10.90;3.53;;;;;;;16.14;98.62;99842.16;5075685;28;20027;-71
2021/06/16 03:13:26;;;;;;;7.30;3.20;;;;;;;16.22;98.60;99838.72;5086197;28;20057;-72
2021/06/16 03:15:53;;;;;;;7.80;3.30;;;;;;;16.15;97.89;99830.03;5090915;28;20020;-70
2021/06/16 03:18:21;;;;;;;8.73;3.35;;;;;;;16.12;97.60;99833.47;5090992;28;20020;-72
2021/06/16 03:20:47;;;;;;;8.68;3.40;;;;;;;16.11;98.03;99839.56;5091179;28;20056;-71
2021/06/16 03:23:13;;;;;;;6.95;3.03;;;;;;;15.94;98.27;99804.78;5083236;28;20446;-72
2021/06/16 03:25:40;;;;;;;8.82;3.58;;;;;;;16.19;97.92;99844.78;5091051;28;20028;-71
2021/06/16 03:28:07;;;;;;;6.93;3.20;;;;;;;15.93;97.69;99792.63;5084190;28;20486;-70
2021/06/16 03:30:32;;;;;;;6.05;3.33;;;;;;;15.75;98.90;99807.25;5084041;28;20024;-70
2021/06/16 03:32:59;;;;;;;7.20;3.58;;;;;;;15.99;98.98;99850.78;5084782;28;20047;-72
2021/06/16 03:35:25;;;;;;;6.85;3.47;;;;;;;16.00;99.02;99849.06;5064364;28;20483;-68
2021/06/16 03:37:53;;;;;;;7.55;3.55;;;;;;;16.05;99.15;99867.28;5070204;28;20043;-71
2021/06/16 03:40:20;;;;;;;7.07;3.25;;;;;;;16.06;98.95;99859.47;5088350;28;20039;-71
2021/06/16 03:42:48;;;;;;;7.45;3.67;;;;;;;16.01;99.46;99864.69;5087685;28;20481;-72
2021/06/16 03:45:14;;;;;;;6.55;3.22;;;;;;;16.06;99.99;99866.44;5088164;28;20548;-71
2021/06/16 03:47:43;;;;;;;7.60;3.60;;;;;;;16.13;100.00;99868.22;5088907;28;20047;-71
2021/06/16 03:50:13;;;;;;;6.10;3.50;;;;;;;16.07;100.00;99860.38;5087291;28;20028;-72
2021/06/16 03:52:39;;;;;;;9.85;3.40;;;;;;;16.14;100.00;99860.41;5089138;28;20030;-71
2021/06/16 03:55:06;;;;;;;10.63;3.53;;;;;;;16.24;99.40;99866.50;5087434;28;20044;-72
2021/06/16 03:57:32;;;;;;;8.68;3.60;;;;;;;16.24;98.18;99863.91;5088925;28;20024;-71
2021/06/16 03:59:58;;;;;;;6.40;3.70;;;;;;;16.19;99.25;99865.63;5086960;28;20063;-71
2021/06/16 04:02:24;;;;;;;7.70;3.30;;;;;;;16.04;98.76;99842.09;5089056;28;20051;-71
2021/06/16 04:04:50;;;;;;;8.95;3.67;;;;;;;16.23;99.25;99871.72;5088480;28;20367;-72
2021/06/16 04:07:19;;;;;;;10.73;3.97;;;;;;;16.23;99.79;99875.19;5087665;28;20024;-72
2021/06/16 04:09:48;;;;;;;7.25;3.60;;;;;;;16.01;99.74;99827.34;5088818;28;20028;-72
2021/06/16 04:12:13;;;;;;;10.70;3.97;;;;;;;16.40;99.33;99874.38;5086393;28;20021;-72
2021/06/16 04:14:40;;;;;;;6.60;4.65;;;;;;;16.44;98.78;99873.53;5090649;28;20029;-70
2021/06/16 04:17:06;;;;;;;7.57;3.85;;;;;;;16.45;97.42;99880.50;5090929;28;20020;-72
2021/06/16 04:19:32;;;;;;;7.07;3.72;;;;;;;16.52;97.94;99881.38;5092935;28;20024;-70
2021/06/16 04:21:57;;;;;;;4.88;4.07;;;;;;;16.52;98.28;99864.00;5093967;28;20020;-70
2021/06/16 04:24:23;;;;;;;6.40;3.67;;;;;;;16.62;98.03;99872.72;5093679;28;20035;-72
2021/06/16 04:26:48;;;;;;;6.30;3.63;;;;;;;16.62;96.43;99868.38;5094086;28;20024;-72
2021/06/16 04:29:14;;;;;;;7.78;4.13;;;;;;;16.57;97.15;99880.50;5093944;28;20024;-73
2021/06/16 04:31:39;;;;;;;6.28;4.00;;;;;;;16.57;96.72;99874.44;5093872;28;20020;-72
2021/06/16 04:34:04;;;;;;;5.65;4.10;;;;;;;16.56;96.87;99872.69;5093677;28;20059;-72
2021/06/16 04:36:30;;;;;;;6.13;3.63;;;;;;;16.65;97.31;99891.84;5093978;28;20024;-72
2021/06/16 04:38:55;;;;;;;5.55;4.00;;;;;;;16.69;96.69;99889.25;5093731;28;20027;-72
2021/06/16 04:41:21;;;;;;;6.25;4.38;;;;;;;16.55;97.36;99870.94;5092459;28;20027;-72
2021/06/16 04:43:46;;;;;;;5.07;4.25;;;;;;;16.68;97.39;99892.72;5099266;28;20031;-70
2021/06/16 04:46:12;;;;;;;7.20;4.57;;;;;;;16.68;97.43;99896.19;5093645;28;20046;-70
2021/06/16 04:48:41;;;;;;;5.20;4.70;;;;;;;16.65;98.48;99897.06;5094232;28;20028;-70
2021/06/16 04:51:07;;;;;;;6.75;4.80;;;;;;;16.54;98.60;99884.88;5094378;28;20031;-70
2021/06/16 04:53:32;;;;;;;7.22;4.32;;;;;;;16.70;99.58;99904.00;5094035;28;20040;-70
2021/06/16 04:55:57;;;;;;;5.10;4.60;;;;;;;16.37;98.87;99850.94;5073409;28;20040;-70
2021/06/16 04:58:24;;;;;;;6.30;5.05;;;;;;;16.71;99.91;99900.53;5072517;28;20024;-70
2021/06/16 05:00:50;;;;;;;7.47;4.72;;;;;;;16.72;100.00;99904.88;5073742;28;20072;-70
2021/06/16 05:03:15;;;;;;;8.10;4.80;;;;;;;16.78;99.41;99912.72;5073572;28;20082;-70
2021/06/16 05:05:44;;;;;;;6.47;5.25;;;;;;;16.75;100.00;99904.91;5073643;28;20060;-70
2021/06/16 05:08:09;;;;;;;9.13;5.35;;;;;;;16.68;100.00;99890.13;5073585;28;20028;-70
2021/06/16 05:10:35;;;;;;;5.72;5.10;;;;;;;16.73;100.00;99896.19;5073475;28;20036;-70
2021/06/16 05:13:00;;;;;;;5.57;4.75;;;;;;;16.75;99.74;99907.50;5073370;28;20032;-71
2021/06/16 05:15:26;;;;;;;5.97;4.70;;;;;;;16.80;99.97;99919.69;5072215;28;20020;-71
2021/06/16 05:17:52;;;;;;;6.03;4.50;;;;;;;16.80;98.51;99913.59;5073573;28;20028;-69
2021/06/16 05:20:17;;;;;;;5.28;4.10;;;;;;;16.85;98.55;99927.53;5073337;28;20020;-71
2021/06/16 05:22:47;;;;;;;6.55;4.32;;;;;;;16.84;97.94;99928.38;5073153;28;20481;-71
2021/06/16 05:25:13;;;;;;;4.70;3.60;;;;;;;16.81;96.43;99897.09;5070730;28;20502;-71
2021/06/16 05:27:40;;;;;;;4.63;3.53;;;;;;;17.00;95.83;99929.31;5073265;28;20503;-70
2021/06/16 05:30:06;;;;;;;4.90;3.60;;;;;;;16.71;96.53;99887.50;5072922;28;20032;-71
2021/06/16 05:32:32;;;;;;;3.95;3.15;;;;;;;16.95;96.05;99926.69;5072666;28;20021;-71
2021/06/16 05:34:58;;;;;;;4.30;3.28;;;;;;;16.89;94.83;99912.75;5073015;28;20035;-71
2021/06/16 05:37:23;;;;;;;7.82;3.28;;;;;;;16.97;95.18;99924.97;5072893;28;20037;-71
2021/06/16 05:39:51;;;;;;;5.03;3.78;;;;;;;17.08;96.12;99940.63;5071477;28;20039;-71
2021/06/16 05:42:17;;;;;;;5.38;3.25;;;;;;;17.13;95.07;99944.13;5072418;28;20125;-71
2021/06/16 05:44:42;;;;;;;3.88;3.35;;;;;;;17.06;93.13;99910.19;5072548;28;20466;-72
2021/06/16 05:47:08;;;;;;;5.15;3.80;;;;;;;17.36;95.15;99956.31;5072305;28;20107;-71
2021/06/16 05:49:33;;;;;;;5.97;3.47;;;;;;;17.38;93.07;99948.50;5072200;28;20020;-71
2021/06/16 05:51:59;;;;;;;5.53;3.70;;;;;;;17.45;93.69;99942.41;5072202;28;20090;-71
2021/06/16 05:54:25;;;;;;;4.82;3.80;;;;;;;17.25;96.03;99904.13;5077376;28;20064;-72
2021/06/16 05:56:51;;;;;;;7.85;4.18;;;;;;;17.56;95.26;99942.44;5092357;28;20032;-72
2021/06/16 05:59:16;;;;;;;5.00;3.50;;;;;;;17.60;95.92;99933.72;5092347;28;20363;-72
2021/06/16 06:01:42;;;;;;;5.25;3.92;;;;;;;17.51;94.26;99916.31;5092247;28;20019;-76
2021/06/16 06:04:07;;;;;;;5.30;4.30;;;;;;;17.58;92.40;99907.63;5089686;28;20024;-72
2021/06/16 06:06:34;;;;;;;4.72;4.10;;;;;;;17.85;92.22;99937.16;5091956;28;20398;-72
2021/06/16 06:09:01;;;;;;;4.78;4.05;;;;;;;17.83;94.21;99932.81;5056582;28;20035;-72
2021/06/16 06:11:26;;;;;;;7.07;4.70;;;;;;;17.84;95.17;99935.41;5091984;28;20020;-72
2021/06/16 06:13:52;;;;;;;6.35;4.30;;;;;;;17.90;94.25;99943.25;5092169;28;20028;-72
2021/06/16 06:16:18;;;;;;;6.05;4.28;;;;;;;17.93;94.34;99931.91;5089208;28;20039;-74
2021/06/16 06:18:44;;;;;;;4.47;3.97;;;;;;;17.76;93.51;99903.25;5092189;28;20035;-72
2021/06/16 06:21:10;;;;;;;5.50;4.40;;;;;;;18.03;93.57;99956.31;5091704;28;20373;-72
2021/06/16 06:23:36;;;;;;;8.32;4.80;;;;;;;17.95;94.00;99919.75;5091709;28;20443;-72
2021/06/16 06:26:03;;;;;;;6.85;4.68;;;;;;;18.34;94.31;99964.06;5090968;28;20078;-72
2021/06/16 06:28:28;;;;;;;5.90;5.30;;;;;;;18.40;93.46;99964.06;5091759;28;20024;-71
2021/06/16 06:30:54;;;;;;;5.28;4.50;;;;;;;18.28;90.49;99933.63;5089784;28;20493;-71
2021/06/16 06:33:19;;;;;;;5.50;5.00;;;;;;;18.50;92.61;99960.53;5092230;28;20035;-69
2021/06/16 06:35:45;;;;;;;7.65;5.18;;;;;;;18.45;90.59;99950.97;5091293;28;20043;-71
2021/06/16 06:38:13;;;;;;;7.65;4.70;;;;;;;18.45;89.01;99938.78;5088922;28;20023;-69
2021/06/16 06:40:38;;;;;;;6.95;5.53;;;;;;;18.46;89.80;99956.19;5091610;28;20024;-71
2021/06/16 06:43:04;;;;;;;6.28;5.40;;;;;;;18.62;90.72;99964.84;5091233;28;20363;-71
2021/06/16 06:45:29;;;;;;;7.60;5.07;;;;;;;18.63;88.21;99966.59;5091315;28;20020;-71
2021/06/16 06:47:55;;;;;;;6.50;5.88;;;;;;;18.72;90.03;99977.00;5091691;28;20027;-70
2021/06/16 06:50:20;;;;;;;6.15;4.55;;;;;;;18.83;88.61;99963.88;5091417;28;20016;-69
2021/06/16 06:52:48;;;;;;;8.70;5.40;;;;;;;18.99;87.79;99967.31;5091022;28;20016;-70
2021/06/16 06:55:14;;;;;;;4.85;4.13;;;;;;;19.14;87.56;99968.97;5091297;28;20052;-71
2021/06/16 06:57:40;;;;;;;9.32;4.45;;;;;;;19.16;88.17;99963.72;5091330;28;20026;-70
2021/06/16 07:00:08;;;;;;;6.22;4.25;;;;;;;19.21;85.78;99954.94;5053476;28;20043;-70
2021/06/16 07:02:34;;;;;;;6.60;4.55;;;;;;;19.14;87.22;99952.38;5091318;28;20035;-71
2021/06/16 07:05:00;;;;;;;9.13;4.97;;;;;;;19.21;90.28;99946.25;5091313;28;20032;-71
2021/06/16 07:07:25;;;;;;;7.47;3.20;;;;;;;19.31;86.94;99960.13;5091311;28;20359;-72
2021/06/16 07:09:51;;;;;;;5.43;3.60;;;;;;;19.28;83.69;99947.06;5091194;28;20035;-71
2021/06/16 07:12:17;;;;;;;5.35;3.35;;;;;;;19.52;83.68;99948.63;5091145;28;20019;-70
2021/06/16 07:14:43;;;;;;;4.22;3.30;;;;;;;19.52;83.23;99962.56;5091387;28;20024;-71
2021/06/16 07:17:09;;;;;;;4.18;3.53;;;;;;;19.58;84.15;99955.56;5091230;28;20050;-70
2021/06/16 07:19:34;;;;;;;5.30;3.40;;;;;;;19.64;84.53;99958.13;5086244;28;20064;-70
2021/06/16 07:22:00;;;;;;;4.10;3.40;;;;;;;19.72;85.16;99957.16;5089266;28;20488;-69
2021/06/16 07:24:25;;;;;;;4.97;3.40;;;;;;;19.75;83.78;99963.28;5089629;28;20016;-71
2021/06/16 07:26:51;;;;;;;5.57;3.53;;;;;;;19.49;83.94;99927.69;5090876;28;20366;-71
2021/06/16 07:29:18;;;;;;;4.38;2.95;;;;;;;19.68;81.61;99963.31;5090924;28;20024;-70
2021/06/16 07:31:44;;;;;;;4.22;3.58;;;;;;;19.62;81.89;99954.66;5091622;28;20036;-71
2021/06/16 07:34:09;;;;;;;3.97;3.20;;;;;;;19.70;83.59;99956.34;5088804;28;20024;-71
2021/06/16 07:36:35;;;;;;;4.78;2.88;;;;;;;19.71;82.81;99954.56;5091784;28;20028;-71
2021/06/16 07:39:00;;;;;;;7.30;3.20;;;;;;;19.72;82.74;99969.41;5091776;28;20028;-71
2021/06/16 07:41:26;;;;;;;3.92;2.53;;;;;;;19.75;80.89;99976.38;5091802;28;20032;-71
2021/06/16 07:43:51;;;;;;;3.70;2.70;;;;;;;19.45;81.72;99926.88;5091669;28;20024;-70
2021/06/16 07:46:17;;;;;;;2.60;1.92;;;;;;;19.66;81.85;99982.56;5091582;28;20024;-70
2021/06/16 07:48:42;;;;;;;2.97;1.63;;;;;;;19.64;80.53;99974.72;5091221;28;20025;-70
2021/06/16 07:51:08;;;;;;;2.33;1.90;;;;;;;19.63;81.61;99991.31;5091545;28;20466;-71
2021/06/16 07:53:33;;;;;;;5.10;2.35;;;;;;;19.71;80.08;99984.28;5092258;28;20415;-70
2021/06/16 07:55:59;;;;;;;3.38;2.38;;;;;;;19.62;80.17;99965.16;5095284;28;20051;-70
2021/06/16 07:58:25;;;;;;;2.92;1.90;;;;;;;19.80;80.37;99971.94;5094701;28;20121;-70
2021/06/16 08:00:51;;;;;;;2.53;2.10;;;;;;;19.81;78.82;99968.47;5095383;28;20028;-70
2021/06/16 08:03:16;;;;;;;2.42;1.90;;;;;;;20.03;78.25;99988.34;5095374;28;20028;-70
2021/06/16 08:05:43;;;;;;;4.30;2.00;;;;;;;20.07;78.24;99989.19;5095160;28;20063;-70
2021/06/16 08:08:09;;;;;;;3.72;2.20;;;;;;;19.96;79.46;99998.91;5093577;28;20058;-70
2021/06/16 08:10:34;;;;;;;2.33;2.08;;;;;;;20.02;80.06;100004.09;5095154;28;20077;-69
2021/06/16 08:13:00;;;;;;;2.97;2.15;;;;;;;19.88;78.27;100010.31;5095454;28;20020;-70
2021/06/16 08:15:27;;;;;;;4.53;2.50;;;;;;;19.81;78.17;100020.84;5095139;28;20474;-70
2021/06/16 08:17:52;;;;;;;3.28;2.70;;;;;;;19.76;78.11;100017.41;5094880;28;20085;-70
2021/06/16 08:20:18;;;;;;;3.33;2.63;;;;;;;19.70;79.20;100027.03;5092587;28;20044;-70
2021/06/16 08:22:45;;;;;;;4.05;3.15;;;;;;;19.66;78.73;100033.16;5095027;28;20020;-71
2021/06/16 08:25:12;;;;;;;3.70;2.67;;;;;;;19.63;78.38;100034.97;5094931;28;20660;-71
2021/06/16 08:27:42;;;;;;;5.75;3.03;;;;;;;19.66;79.66;100042.78;5095092;28;20032;-71
2021/06/16 08:30:09;;;;;;;5.53;3.00;;;;;;;19.58;79.92;100032.38;5094714;28;20030;-71
2021/06/16 08:32:34;;;;;;;4.60;2.90;;;;;;;19.40;80.65;99997.59;5094650;28;20024;-71
2021/06/16 08:35:00;;;;;;;5.30;2.88;;;;;;;19.62;79.43;100031.47;5094942;28;20054;-71
2021/06/16 08:37:26;;;;;;;4.38;2.85;;;;;;;19.49;80.07;100004.50;5094677;28;20024;-71
2021/06/16 08:39:51;;;;;;;5.30;3.30;;;;;;;19.71;80.13;100027.91;5094556;28;20032;-71
2021/06/16 08:42:17;;;;;;;3.90;3.30;;;;;;;19.85;79.91;100047.03;5094592;28;20051;-70
2021/06/16 08:44:42;;;;;;;4.50;3.50;;;;;;;19.73;78.21;100010.44;5094587;28;20028;-70
2021/06/16 08:47:08;;;;;;;4.30;3.53;;;;;;;20.00;79.98;100050.41;5093160;28;20024;-71
2021/06/16 08:49:35;;;;;;;3.97;3.10;;;;;;;20.01;79.72;100041.66;5094372;28;20067;-71
2021/06/16 08:52:01;;;;;;;4.78;2.95;;;;;;;19.81;79.27;100013.88;5093962;28;20549;-71
2021/06/16 08:54:27;;;;;;;4.53;3.42;;;;;;;20.05;80.23;100059.13;5093996;28;20048;-71
2021/06/16 08:56:52;;;;;;;4.15;3.40;;;;;;;20.05;80.88;100046.00;5094549;28;20027;-71
2021/06/16 08:59:18;;;;;;;5.05;3.55;;;;;;;19.91;80.78;100048.72;5092621;28;20028;-70
2021/06/16 09:01:43;;;;;;;4.53;3.75;;;;;;;19.86;81.63;100058.38;5093794;28;20025;-71
2021/06/16 09:04:09;;;;;;;4.63;4.00;;;;;;;19.80;82.23;100055.78;5092357;28;20032;-71
2021/06/16 09:06:35;;;;;;;4.20;3.53;;;;;;;19.78;82.13;100042.69;5094072;28;20028;-71
2021/06/16 09:09:08;;;;;;;4.65;3.55;;;;;;;19.39;80.70;99997.59;5094096;28;20081;-70
2021/06/16 09:11:40;;;;;;;3.60;2.80;;;;;;;19.77;79.09;100069.75;5091811;28;20036;-71
2021/06/16 09:14:20;;;;;;;3.75;2.97;;;;;;;19.80;79.78;100075.00;5093684;28;20036;-71
2021/06/16 09:16:47;;;;;;;4.93;3.10;;;;;;;19.69;79.81;100067.22;5093777;28;20028;-71
2021/06/16 09:19:26;;;;;;;5.65;3.00;;;;;;;19.74;79.58;100098.59;5093983;28;20031;-71
2021/06/16 09:22:06;;;;;;;4.55;3.40;;;;;;;19.66;79.67;100098.63;5093782;28;20020;-69
2021/06/16 09:24:41;;;;;;;5.55;3.35;;;;;;;19.52;80.77;100069.94;5093796;28;20068;-71
2021/06/16 09:27:07;;;;;;;4.97;3.30;;;;;;;19.63;81.18;100088.19;5093462;28;20482;-71
2021/06/16 09:29:36;;;;;;;4.88;3.53;;;;;;;19.66;82.33;100090.78;5093707;28;20026;-71
2021/06/16 09:32:04;;;;;;;4.38;3.60;;;;;;;19.72;82.30;100101.22;5093297;28;20501;-71
2021/06/16 09:34:31;;;;;;;4.65;3.10;;;;;;;19.42;80.33;100055.16;5093870;28;20362;-70
2021/06/16 09:37:05;;;;;;;4.75;2.40;;;;;;;19.76;79.36;100104.69;5091257;28;20486;-71
2021/06/16 09:39:32;;;;;;;3.55;2.55;;;;;;;19.72;79.66;100097.75;5093219;28;20096;-71
2021/06/16 09:42:00;;;;;;;3.95;2.70;;;;;;;19.78;79.66;100097.69;5093080;28;20031;-71
2021/06/16 09:44:38;;;;;;;4.65;2.95;;;;;;;19.66;79.97;100061.97;5093220;28;20032;-69
2021/06/16 09:47:21;;;;;;;3.50;2.60;;;;;;;19.65;78.74;100052.41;5092573;28;20020;-70
2021/06/16 09:49:56;;;;;;;3.30;2.80;;;;;;;19.73;78.59;100089.88;5093006;28;20071;-69
2021/06/16 09:52:33;;;;;;;8.23;3.22;;;;;;;19.80;79.10;100085.47;5092891;28;20020;-70
2021/06/16 09:55:07;;;;;;;3.55;2.83;;;;;;;19.61;79.25;100057.66;5092833;28;20052;-70
2021/06/16 09:57:33;;;;;;;3.72;2.70;;;;;;;19.83;78.15;100085.47;5093079;28;20103;-69
2021/06/16 10:00:05;;;;;;;3.83;3.08;;;;;;;19.96;79.12;100096.75;5092666;28;20063;-69
2021/06/16 10:02:31;;;;;;;4.82;3.40;;;;;;;20.01;80.01;100100.19;5092101;28;20036;-70
2021/06/16 10:04:59;;;;;;;4.50;3.60;;;;;;;20.05;78.83;100082.69;5089299;28;20024;-71
2021/06/16 10:07:28;;;;;;;4.10;2.83;;;;;;;20.02;78.35;100095.81;5091979;28;20107;-70
2021/06/16 10:10:09;;;;;;;5.65;4.03;;;;;;;19.98;81.25;100099.34;5092368;28;20020;-71
2021/06/16 10:12:40;;;;;;;8.52;3.47;;;;;;;19.98;79.05;100115.06;5089682;28;20032;-70
2021/06/16 10:15:15;;;;;;;4.63;3.15;;;;;;;19.76;79.06;100081.13;5092226;28;20070;-69
2021/06/16 10:17:40;;;;;;;5.88;3.15;;;;;;;19.92;79.57;100123.81;5085275;28;20083;-69
2021/06/16 10:20:08;;;;;;;5.68;3.47;;;;;;;19.83;79.97;100121.28;5080534;28;20028;-70
2021/06/16 10:22:33;;;;;;;5.95;3.85;;;;;;;19.85;80.58;100123.00;5091643;28;20020;-70
2021/06/16 10:24:59;;;;;;;5.47;3.28;;;;;;;19.78;80.89;100121.28;5091751;28;20039;-70
2021/06/16 10:27:28;;;;;;;4.53;3.42;;;;;;;19.73;80.63;100123.06;5091904;28;20494;-69
2021/06/16 10:30:04;;;;;;;5.13;3.58;;;;;;;19.71;80.64;100117.84;5091667;28;20024;-71
2021/06/16 10:32:37;;;;;;;6.38;3.65;;;;;;;19.72;81.57;100129.16;5090379;28;20112;-70
2021/06/16 10:35:05;;;;;;;5.40;3.45;;;;;;;19.67;79.64;100129.19;5088457;28;20183;-70
2021/06/16 10:37:38;;;;;;;5.70;3.90;;;;;;;19.69;81.05;100126.59;5089539;28;20062;-71
2021/06/16 10:40:19;;;;;;;5.60;3.58;;;;;;;19.69;80.59;100126.59;5091126;28;20111;-71
2021/06/16 10:43:03;;;;;;;5.05;3.30;;;;;;;19.65;80.57;100133.59;5088640;28;20119;-72
2021/06/16 10:45:30;;;;;;;4.22;2.92;;;;;;;19.67;80.13;100125.72;5087439;28;20421;-73
2021/06/16 10:47:58;;;;;;;9.75;3.42;;;;;;;19.66;79.92;100124.81;5091195;28;20024;-72
2021/06/16 10:50:47;;;;;;;5.68;3.10;;;;;;;19.64;80.19;100099.53;5091290;28;20394;-72
2021/06/16 10:53:18;;;;;;;6.50;4.22;;;;;;;19.55;80.53;100083.00;5048750;28;20380;-72
2021/06/16 10:55:53;;;;;;;18.15;7.43;;;;;;;19.53;81.80;100090.00;5048548;28;20160;-72
2021/06/16 10:58:25;;;;;;;22.55;10.15;;;;;;;19.59;80.37;100086.50;5048874;28;20037;-72
2021/06/16 11:01:11;;;;;;;18.85;9.07;;;;;;;19.84;80.44;100125.66;5048965;28;20162;-72
2021/06/16 11:03:52;;;;;;;12.65;6.95;;;;;;;19.88;79.62;100129.97;5032091;28;20502;-72
2021/06/16 11:06:36;;;;;;;21.73;10.13;;;;;;;19.92;79.91;100125.59;5048477;28;20587;-72
2021/06/16 11:09:11;;;;;;;6.47;4.20;;;;;;;20.01;78.83;100136.88;5048823;28;20025;-73
2021/06/16 11:12:04;;;;;;;4.50;3.40;;;;;;;20.02;76.45;100133.34;5048751;28;20040;-71
2021/06/16 11:14:40;;;;;;;4.40;3.92;;;;;;;20.09;76.38;100136.81;5048656;28;20537;-72
2021/06/16 11:17:07;;;;;;;4.88;3.90;;;;;;;20.12;75.88;100125.44;5048680;28;20090;-72
2021/06/16 11:19:35;;;;;;;5.43;3.70;;;;;;;20.12;76.56;100133.28;5042859;28;20037;-72
2021/06/16 11:22:12;;;;;;;5.32;3.63;;;;;;;20.08;76.15;100132.44;5048563;28;20029;-71
2021/06/16 11:25:10;;;;;;;4.32;3.60;;;;;;;20.14;76.19;100131.53;5048744;28;20041;-72
2021/06/16 11:27:51;;;;;;;7.00;4.10;;;;;;;20.13;76.80;100127.19;5049855;28;20032;-72
2021/06/16 11:30:51;;;;;;;4.65;3.78;;;;;;;20.02;76.49;100117.63;5080553;28;20512;-72
2021/06/16 11:33:17;;;;;;;6.57;4.28;;;;;;;20.15;76.59;100134.16;5095700;28;20024;-72
2021/06/16 11:35:45;;;;;;;4.95;3.75;;;;;;;20.15;76.75;100128.00;5095133;28;20104;-72